createdAt,value
2023-05-01T00:02:24.230Z,100723.88
2023-05-01T00:04:51.747Z,100714.69
2023-05-01T00:07:19.178Z,100725.28
2023-05-01T00:09:46.960Z,100719.00
2023-05-01T00:12:14.763Z,100705.75
2023-05-01T00:14:42.426Z,100704.91
2023-05-01T00:17:10.218Z,100711.31
2023-05-01T00:19:37.715Z,100712.31
2023-05-01T00:22:05.058Z,100721.25
2023-05-01T00:24:32.453Z,100724.91
2023-05-01T00:26:59.882Z,100722.53
2023-05-01T00:29:27.293Z,100709.91
2023-05-01T00:31:55.432Z,100699.97
2023-05-01T00:34:23.095Z,100706.19
2023-05-01T00:36:51.044Z,100682.16
2023-05-01T00:39:18.307Z,100686.44
2023-05-01T00:41:45.723Z,100702.50
2023-05-01T00:44:13.088Z,100715.38
2023-05-01T00:46:40.753Z,100716.00
2023-05-01T00:49:08.236Z,100704.69
2023-05-01T00:51:36.139Z,100690.34
2023-05-01T00:54:03.919Z,100696.47
2023-05-01T00:56:31.855Z,100705.88
2023-05-01T00:59:00.083Z,100730.56
2023-05-01T01:01:29.078Z,100732.75
2023-05-01T01:03:56.911Z,100758.47
2023-05-01T01:07:09.621Z,100769.50
2023-05-01T01:09:55.669Z,100759.69
2023-05-01T01:12:32.839Z,100749.91
2023-05-01T01:15:19.202Z,100749.91
2023-05-01T01:18:22.657Z,100751.94
2023-05-01T01:21:07.217Z,100754.94
2023-05-01T01:23:53.737Z,100756.06
2023-05-01T01:26:38.994Z,100750.97
2023-05-01T01:29:38.996Z,100733.97
2023-05-01T01:32:06.101Z,100741.94
2023-05-01T01:34:49.276Z,100744.56
2023-05-01T01:37:33.130Z,100744.75
2023-05-01T01:40:05.580Z,100749.63
2023-05-01T01:42:42.462Z,100749.63
2023-05-01T01:45:16.033Z,100748.00
2023-05-01T01:47:45.304Z,100746.09
2023-05-01T01:50:15.441Z,100753.66
2023-05-01T01:52:45.716Z,100753.28
2023-05-01T01:55:15.486Z,100756.13
2023-05-01T01:57:45.932Z,100759.84
2023-05-01T02:00:14.608Z,100778.44
2023-05-01T02:02:47.175Z,100775.00
2023-05-01T02:05:18.142Z,100766.00
2023-05-01T02:07:48.957Z,100757.19
2023-05-01T02:10:16.965Z,100756.19
2023-05-01T02:12:47.278Z,100766.78
2023-05-01T02:15:18.612Z,100773.44
2023-05-01T02:17:46.540Z,100781.41
2023-05-01T02:20:14.180Z,100775.66
2023-05-01T02:22:42.730Z,100782.59
2023-05-01T02:25:13.310Z,100787.53
2023-05-01T02:28:07.822Z,100789.97
2023-05-01T02:30:35.178Z,100797.91
2023-05-01T02:33:02.588Z,100795.25
2023-05-01T02:35:29.968Z,100793.28
2023-05-01T02:37:57.595Z,100806.16
2023-05-01T02:40:25.442Z,100806.16
2023-05-01T02:42:53.640Z,100811.22
2023-05-01T02:45:25.167Z,100817.72
2023-05-01T02:48:00.137Z,100818.53
2023-05-01T02:50:46.788Z,100818.19
2023-05-01T02:53:15.916Z,100822.66
2023-05-01T02:55:50.291Z,100812.81
2023-05-01T02:58:21.108Z,100824.28
2023-05-01T03:00:51.799Z,100817.81
2023-05-01T03:03:20.511Z,100796.19
2023-05-01T03:05:48.186Z,100802.16
2023-05-01T03:08:15.858Z,100798.72
2023-05-01T03:10:43.605Z,100793.16
2023-05-01T03:13:11.897Z,100790.75
2023-05-01T03:15:39.867Z,100803.91
2023-05-01T03:18:07.230Z,100815.59
2023-05-01T03:20:34.849Z,100822.31
2023-05-01T03:23:03.574Z,100832.47
2023-05-01T03:25:31.598Z,100834.56
2023-05-01T03:28:17.700Z,100834.19
2023-05-01T03:30:45.585Z,100839.50
2023-05-01T03:33:13.246Z,100843.59
2023-05-01T03:38:09.055Z,100840.81
2023-05-01T03:41:05.821Z,100842.00
2023-05-01T03:43:51.612Z,100844.66
2023-05-01T03:46:31.306Z,100838.34
2023-05-01T03:48:58.879Z,100831.22
2023-05-01T03:51:27.663Z,100822.69
2023-05-01T03:53:59.192Z,100826.78
2023-05-01T03:56:35.893Z,100824.34
2023-05-01T03:59:05.495Z,100822.69
2023-05-01T04:01:34.020Z,100822.69
2023-05-01T04:04:02.440Z,100809.63
2023-05-01T04:06:30.379Z,100826.34
2023-05-01T04:08:57.800Z,100821.03
2023-05-01T04:11:25.132Z,100810.06
2023-05-01T04:13:52.704Z,100815.06
2023-05-01T04:16:20.685Z,100810.56
2023-05-01T04:18:48.345Z,100810.63
2023-05-01T04:21:17.890Z,100812.84
2023-05-01T04:23:49.410Z,100818.19
2023-05-01T04:26:17.048Z,100829.84
2023-05-01T04:28:45.238Z,100818.56
2023-05-01T04:31:15.523Z,100831.06
2023-05-01T04:33:42.931Z,100832.09
2023-05-01T04:36:10.301Z,100842.72
2023-05-01T04:38:37.686Z,100851.47
2023-05-01T04:41:08.313Z,100859.09
2023-05-01T04:43:35.812Z,100852.63
2023-05-01T04:46:05.134Z,100856.75
2023-05-01T04:48:33.382Z,100859.25
2023-05-01T04:51:01.114Z,100854.19
2023-05-01T04:53:32.274Z,100852.81
2023-05-01T04:55:59.808Z,100845.91
2023-05-01T04:58:28.081Z,100860.22
2023-05-01T05:01:00.476Z,100871.25
2023-05-01T05:03:27.886Z,100874.78
2023-05-01T05:05:55.908Z,100887.53
2023-05-01T05:08:24.453Z,100883.91
2023-05-01T05:11:02.420Z,100881.69
2023-05-01T05:13:52.993Z,100881.94
2023-05-01T05:16:20.690Z,100888.91
2023-05-01T05:19:06.486Z,100898.09
2023-05-01T05:21:37.895Z,100907.50
2023-05-01T05:24:05.404Z,100903.41
2023-05-01T05:26:33.136Z,100914.50
2023-05-01T05:29:03.182Z,100915.75
2023-05-01T05:31:31.034Z,100915.94
2023-05-01T05:33:59.195Z,100933.34
2023-05-01T05:36:27.885Z,100926.19
2023-05-01T05:38:55.690Z,100928.91
2023-05-01T05:41:23.240Z,100922.16
2023-05-01T05:43:54.672Z,100916.25
2023-05-01T05:46:22.133Z,100913.38
2023-05-01T05:48:49.638Z,100921.94
2023-05-01T05:51:17.501Z,100919.50
2023-05-01T05:53:45.011Z,100916.63
2023-05-01T05:56:12.882Z,100921.53
2023-05-01T05:58:40.264Z,100907.63
2023-05-01T06:01:09.643Z,100907.22
2023-05-01T06:03:38.824Z,100924.41
2023-05-01T06:06:06.515Z,100918.69
2023-05-01T06:08:35.661Z,100927.69
2023-05-01T06:11:05.348Z,100931.59
2023-05-01T06:13:33.157Z,100938.34
2023-05-01T06:16:01.592Z,100938.34
2023-05-01T06:18:30.392Z,100944.91
2023-05-01T06:20:57.788Z,100951.03
2023-05-01T06:23:25.135Z,100944.91
2023-05-01T06:26:10.785Z,100939.38
2023-05-01T06:28:38.173Z,100947.16
2023-05-01T06:31:05.802Z,100945.91
2023-05-01T06:33:37.060Z,100954.50
2023-05-01T06:36:16.449Z,100951.44
2023-05-01T06:38:49.007Z,100959.63
2023-05-01T06:41:16.773Z,100963.75
2023-05-01T06:43:45.334Z,100955.94
2023-05-01T06:46:31.260Z,100966.59
2023-05-01T06:48:58.679Z,100963.94
2023-05-01T06:51:26.250Z,100969.66
2023-05-01T06:53:53.552Z,100978.66
2023-05-01T06:56:22.029Z,100969.88
2023-05-01T06:58:49.556Z,100974.19
2023-05-01T07:01:17.890Z,100975.41
2023-05-01T07:03:45.329Z,100972.94
2023-05-01T07:06:12.669Z,100978.47
2023-05-01T07:08:40.097Z,100979.44
2023-05-01T07:11:07.902Z,100972.06
2023-05-01T07:13:35.237Z,100974.66
2023-05-01T07:16:02.697Z,100976.53
2023-05-01T07:18:30.266Z,100987.19
2023-05-01T07:20:57.820Z,100997.69
2023-05-01T07:23:25.794Z,100998.94
2023-05-01T07:25:53.336Z,101001.59
2023-05-01T07:28:22.106Z,100996.88
2023-05-01T07:30:49.507Z,100996.41
2023-05-01T07:33:16.934Z,100986.50
2023-05-01T07:35:44.306Z,101000.00
2023-05-01T07:38:30.604Z,101013.94
2023-05-01T07:40:57.878Z,101007.59
2023-05-01T07:43:25.251Z,101012.53
2023-05-01T07:46:00.731Z,101013.97
2023-05-01T07:48:29.093Z,101009.66
2023-05-01T07:50:57.326Z,101010.88
2023-05-01T07:53:24.676Z,101014.41
2023-05-01T07:55:52.139Z,101004.91
2023-05-01T07:58:19.487Z,101007.31
2023-05-01T08:00:46.753Z,101004.41
2023-05-01T08:03:14.334Z,101010.56
2023-05-01T08:05:42.288Z,101007.50
2023-05-01T08:08:09.942Z,101003.19
2023-05-01T08:10:37.365Z,101010.75
2023-05-01T08:13:04.681Z,101008.50
2023-05-01T08:15:32.043Z,101019.94
2023-05-01T08:17:59.421Z,101012.69
2023-05-01T08:20:26.698Z,101021.06
2023-05-01T08:22:54.100Z,101021.81
2023-05-01T08:25:21.498Z,101027.09
2023-05-01T08:27:49.708Z,101026.03
2023-05-01T08:30:17.112Z,101018.56
2023-05-01T08:32:44.578Z,101024.56
2023-05-01T08:35:11.980Z,101029.66
2023-05-01T08:37:39.387Z,101036.53
2023-05-01T08:40:09.283Z,101026.44
2023-05-01T08:42:37.736Z,101032.09
2023-05-01T08:45:08.185Z,101023.97
2023-05-01T08:47:41.105Z,101032.91
2023-05-01T08:50:12.190Z,101019.84
2023-05-01T08:52:45.899Z,101022.91
2023-05-01T08:55:16.615Z,101032.16
2023-05-01T08:57:48.741Z,101025.66
2023-05-01T09:00:21.179Z,101035.94
2023-05-01T09:02:50.284Z,101041.66
2023-05-01T09:05:19.293Z,101033.63
2023-05-01T09:07:47.571Z,101021.44
2023-05-01T09:10:17.867Z,101036.47
2023-05-01T09:12:49.534Z,101036.69
2023-05-01T09:15:17.065Z,101043.50
2023-05-01T09:17:45.275Z,101043.00
2023-05-01T09:20:12.809Z,101041.59
2023-05-01T09:22:40.388Z,101021.47
2023-05-01T09:25:08.097Z,101037.84
2023-05-01T09:27:36.124Z,101035.34
2023-05-01T09:30:04.356Z,101034.50
2023-05-01T09:32:32.774Z,101035.69
2023-05-01T09:35:15.005Z,101034.41
2023-05-01T09:37:42.541Z,101030.72
2023-05-01T09:40:14.812Z,101035.16
2023-05-01T09:42:50.973Z,101029.38
2023-05-01T09:45:19.751Z,101036.13
2023-05-01T09:47:47.684Z,101047.22
2023-05-01T09:50:34.747Z,101052.56
2023-05-01T09:53:05.303Z,101047.81
2023-05-01T09:55:35.050Z,101065.38
2023-05-01T09:58:02.879Z,101065.72
2023-05-01T10:00:30.548Z,101061.59
2023-05-01T10:02:58.086Z,101071.81
2023-05-01T10:05:25.589Z,101059.06
2023-05-01T10:08:02.579Z,101062.50
2023-05-01T10:10:30.302Z,101070.66
2023-05-01T10:13:13.982Z,101076.03
2023-05-01T10:15:41.662Z,101079.13
2023-05-01T10:18:13.651Z,101077.94
2023-05-01T10:20:41.344Z,101077.94
2023-05-01T10:23:09.029Z,101089.06
2023-05-01T10:25:36.989Z,101088.63
2023-05-01T10:28:07.714Z,101089.81
2023-05-01T10:30:36.241Z,101092.38
2023-05-01T10:33:03.888Z,101083.22
2023-05-01T10:35:40.893Z,101092.84
2023-05-01T10:38:11.892Z,101087.63
2023-05-01T10:40:39.242Z,101093.56
2023-05-01T10:43:16.117Z,101095.00
2023-05-01T10:45:47.859Z,101087.34
2023-05-01T10:48:40.538Z,101081.53
2023-05-01T10:51:20.717Z,101082.94
2023-05-01T10:53:49.085Z,101083.19
2023-05-01T10:56:24.349Z,101082.28
2023-05-01T10:58:59.047Z,101087.19
2023-05-01T11:01:35.462Z,101087.19
2023-05-01T11:04:24.976Z,101078.47
2023-05-01T11:07:14.018Z,101086.28
2023-05-01T11:09:55.603Z,101088.31
2023-05-01T11:12:46.950Z,101081.22
2023-05-01T11:15:30.775Z,101082.06
2023-05-01T11:17:59.594Z,101078.53
2023-05-01T11:20:26.969Z,101082.91
2023-05-01T11:22:56.104Z,101081.22
2023-05-01T11:25:24.548Z,101075.88
2023-05-01T11:27:57.006Z,101069.34
2023-05-01T11:30:24.873Z,101079.53
2023-05-01T11:32:52.748Z,101069.22
2023-05-01T11:35:21.255Z,101071.34
2023-05-01T11:37:51.362Z,101067.09
2023-05-01T11:40:29.276Z,101068.53
2023-05-01T11:43:04.013Z,101051.69
2023-05-01T11:45:32.132Z,101061.13
2023-05-01T11:48:02.889Z,101061.84
2023-05-01T11:50:36.634Z,101054.50
2023-05-01T11:53:11.904Z,101059.28
2023-05-01T11:55:40.479Z,101058.00
2023-05-01T11:58:08.367Z,101063.22
2023-05-01T12:00:38.430Z,101071.94
2023-05-01T12:03:11.090Z,101066.91
2023-05-01T12:05:44.085Z,101066.06
2023-05-01T12:08:13.242Z,101076.41
2023-05-01T12:10:43.829Z,101071.38
2023-05-01T12:13:13.725Z,101070.88
2023-05-01T12:15:47.076Z,101076.91
2023-05-01T12:18:16.100Z,101081.97
2023-05-01T12:20:45.930Z,101086.16
2023-05-01T12:23:16.371Z,101075.72
2023-05-01T12:25:45.367Z,101080.88
2023-05-01T12:28:18.453Z,101086.81
2023-05-01T12:30:48.204Z,101082.38
2023-05-01T12:33:17.829Z,101098.16
2023-05-01T12:35:47.068Z,101086.28
2023-05-01T12:38:20.532Z,101087.19
2023-05-01T12:40:59.775Z,101097.44
2023-05-01T12:46:24.269Z,101094.03
2023-05-01T12:48:54.278Z,101093.06
2023-05-01T12:51:22.347Z,101089.56
2023-05-01T12:53:50.636Z,101097.00
2023-05-01T12:56:25.917Z,101095.34
2023-05-01T12:58:54.043Z,101098.97
2023-05-01T13:01:29.391Z,101102.66
2023-05-01T13:03:58.321Z,101106.72
2023-05-01T13:06:37.020Z,101100.25
2023-05-01T13:09:10.948Z,101109.78
2023-05-01T13:11:39.039Z,101111.84
2023-05-01T13:14:10.424Z,101107.72
2023-05-01T13:16:47.089Z,101110.06
2023-05-01T13:19:15.822Z,101113.28
2023-05-01T13:21:55.073Z,101110.66
2023-05-01T13:24:23.750Z,101117.38
2023-05-01T13:27:03.495Z,101117.44
2023-05-01T13:29:33.544Z,101112.16
2023-05-01T13:32:01.500Z,101118.53
2023-05-01T13:34:31.721Z,101117.13
2023-05-01T13:37:02.519Z,101128.03
2023-05-01T13:39:30.286Z,101119.44
2023-05-01T13:42:06.879Z,101132.38
2023-05-01T13:44:42.477Z,101148.84
2023-05-01T13:47:17.255Z,101150.94
2023-05-01T13:49:45.874Z,101141.84
2023-05-01T13:52:18.374Z,101155.91
2023-05-01T13:54:47.332Z,101153.13
2023-05-01T13:57:16.636Z,101154.94
2023-05-01T13:59:46.425Z,101162.31
2023-05-01T14:02:28.154Z,101159.84
2023-05-01T14:04:58.579Z,101153.75
2023-05-01T14:07:28.215Z,101157.47
2023-05-01T14:10:02.631Z,101158.94
2023-05-01T14:12:32.595Z,101159.22
2023-05-01T14:15:03.728Z,101159.31
2023-05-01T14:17:36.328Z,101162.66
2023-05-01T14:20:07.939Z,101170.13
2023-05-01T14:22:45.176Z,101167.97
2023-05-01T14:25:20.832Z,101174.75
2023-05-01T14:27:50.247Z,101180.81
2023-05-01T14:30:40.346Z,101185.97
2023-05-01T14:33:12.944Z,101184.13
2023-05-01T14:35:59.079Z,101188.06
2023-05-01T14:38:27.906Z,101190.97
2023-05-01T14:41:15.417Z,101186.69
2023-05-01T14:43:44.988Z,101193.50
2023-05-01T14:46:14.067Z,101198.84
2023-05-01T14:48:42.792Z,101204.22
2023-05-01T14:51:13.223Z,101206.69
2023-05-01T14:53:44.110Z,101202.00
2023-05-01T14:56:12.996Z,101197.72
2023-05-01T14:58:40.518Z,101197.31
2023-05-01T15:01:08.288Z,101200.56
2023-05-01T15:03:41.202Z,101202.63
2023-05-01T15:08:54.016Z,101195.88
2023-05-01T15:11:21.882Z,101191.59
2023-05-01T15:13:50.630Z,101202.47
2023-05-01T15:16:18.010Z,101197.75
2023-05-01T15:18:45.379Z,101199.41
2023-05-01T15:21:12.956Z,101183.00
2023-05-01T15:23:45.358Z,101188.94
2023-05-01T15:26:12.748Z,101194.47
2023-05-01T15:28:40.292Z,101190.41
2023-05-01T15:31:07.767Z,101193.25
2023-05-01T15:33:35.280Z,101204.94
2023-05-01T15:36:02.706Z,101199.41
2023-05-01T15:38:30.446Z,101204.94
2023-05-01T15:40:57.889Z,101202.91
2023-05-01T15:43:25.158Z,101208.03
2023-05-01T15:45:53.085Z,101205.56
2023-05-01T15:48:20.542Z,101205.97
2023-05-01T15:50:49.210Z,101208.22
2023-05-01T15:53:17.445Z,101215.41
2023-05-01T15:55:44.789Z,101214.13
2023-05-01T15:58:12.175Z,101207.59
2023-05-01T16:03:24.261Z,101214.50
2023-05-01T16:05:51.713Z,101219.00
2023-05-01T16:08:19.559Z,101236.59
2023-05-01T16:10:47.057Z,101225.53
2023-05-01T16:13:14.399Z,101242.31
2023-05-01T16:15:41.754Z,101252.56
2023-05-01T16:18:10.365Z,101248.47
2023-05-01T16:20:43.197Z,101248.44
2023-05-01T16:23:12.386Z,101257.44
2023-05-01T16:25:43.370Z,101257.44
2023-05-01T16:28:11.663Z,101261.09
2023-05-01T16:30:42.597Z,101255.97
2023-05-01T16:33:18.969Z,101263.31
2023-05-01T16:35:48.889Z,101270.47
2023-05-01T16:38:17.658Z,101268.19
2023-05-01T16:40:46.664Z,101279.88
2023-05-01T16:43:14.322Z,101277.22
2023-05-01T16:45:42.194Z,101272.88
2023-05-01T16:48:09.824Z,101281.91
2023-05-01T16:50:41.519Z,101276.34
2023-05-01T16:53:08.935Z,101275.28
2023-05-01T16:55:36.413Z,101286.53
2023-05-01T16:58:03.732Z,101293.47
2023-05-01T17:00:31.597Z,101303.31
2023-05-01T17:02:59.297Z,101298.19
2023-05-01T17:05:45.090Z,101302.03
2023-05-01T17:08:12.594Z,101310.63
2023-05-01T17:10:39.896Z,101314.91
2023-05-01T17:13:08.056Z,101311.63
2023-05-01T17:15:36.727Z,101308.34
2023-05-01T17:18:04.141Z,101315.72
2023-05-01T17:20:31.516Z,101305.81
2023-05-01T17:22:59.180Z,101319.13
2023-05-01T17:25:26.475Z,101316.03
2023-05-01T17:27:53.990Z,101313.75
2023-05-01T17:30:21.407Z,101321.75
2023-05-01T17:32:48.781Z,101315.78
2023-05-01T17:35:16.928Z,101319.25
2023-05-01T17:37:45.243Z,101330.31
2023-05-01T17:40:12.774Z,101329.81
2023-05-01T17:42:40.562Z,101327.75
2023-05-01T17:45:10.242Z,101327.75
2023-05-01T17:47:43.068Z,101327.88
2023-05-01T17:50:11.921Z,101325.78
2023-05-01T17:52:40.583Z,101334.59
2023-05-01T17:55:08.364Z,101333.31
2023-05-01T17:57:35.771Z,101331.03
2023-05-01T18:00:04.635Z,101327.13
2023-05-01T18:02:39.970Z,101330.41
2023-05-01T18:05:07.612Z,101324.22
2023-05-01T18:07:34.944Z,101328.50
2023-05-01T18:10:02.517Z,101334.84
2023-05-01T18:12:33.603Z,101322.94
2023-05-01T18:15:00.856Z,101325.75
2023-05-01T18:17:28.103Z,101324.91
2023-05-01T18:19:55.362Z,101321.63
2023-05-01T18:22:22.971Z,101317.69
2023-05-01T18:24:50.553Z,101322.00
2023-05-01T18:27:17.839Z,101313.81
2023-05-01T18:29:45.108Z,101317.13
2023-05-01T18:32:14.010Z,101322.44
2023-05-01T18:34:42.357Z,101314.69
2023-05-01T18:37:09.732Z,101316.28
2023-05-01T18:39:37.048Z,101316.47
2023-05-01T18:42:04.527Z,101314.47
2023-05-01T18:44:31.919Z,101308.88
2023-05-01T18:46:59.231Z,101313.19
2023-05-01T18:49:26.600Z,101312.19
2023-05-01T18:51:54.010Z,101310.53
2023-05-01T18:54:23.179Z,101307.25
2023-05-01T18:56:50.763Z,101309.28
2023-05-01T18:59:18.150Z,101314.59
2023-05-01T19:01:45.818Z,101312.56
2023-05-01T19:04:13.261Z,101312.94
2023-05-01T19:06:41.179Z,101311.28
2023-05-01T19:09:08.462Z,101311.50
2023-05-01T19:11:35.609Z,101308.38
2023-05-01T19:14:02.796Z,101309.97
2023-05-01T19:16:30.259Z,101312.44
2023-05-01T19:18:57.637Z,101311.16
2023-05-01T19:21:25.218Z,101308.69
2023-05-01T19:23:52.626Z,101316.47
2023-05-01T19:26:19.989Z,101310.91
2023-05-01T19:28:47.531Z,101319.31
2023-05-01T19:33:59.782Z,101324.28
2023-05-01T19:36:27.283Z,101336.28
2023-05-01T19:38:54.613Z,101332.63
2023-05-01T19:44:07.014Z,101343.88
2023-05-01T19:46:34.348Z,101335.47
2023-05-01T19:49:01.775Z,101335.03
2023-05-01T19:51:29.046Z,101330.97
2023-05-01T19:53:57.218Z,101345.47
2023-05-01T19:56:25.552Z,101343.97
2023-05-01T19:58:56.083Z,101341.50
2023-05-01T20:01:23.819Z,101344.16
2023-05-01T20:03:51.328Z,101340.06
2023-05-01T20:06:18.620Z,101341.91
2023-05-01T20:08:47.576Z,101345.56
2023-05-01T20:11:15.217Z,101344.75
2023-05-01T20:13:42.705Z,101327.53
2023-05-01T20:16:10.225Z,101334.66
2023-05-01T20:18:37.629Z,101349.16
2023-05-01T20:21:06.333Z,101349.34
2023-05-01T20:23:34.701Z,101339.88
2023-05-01T20:26:01.973Z,101344.81
2023-05-01T20:28:29.548Z,101344.81
2023-05-01T20:30:57.038Z,101340.69
2023-05-01T20:33:24.909Z,101340.69
2023-05-01T20:35:52.391Z,101347.28
2023-05-01T20:38:19.779Z,101350.97
2023-05-01T20:40:47.067Z,101350.47
2023-05-01T20:43:14.481Z,101343.34
2023-05-01T20:45:41.858Z,101342.72
2023-05-01T20:48:09.328Z,101347.38
2023-05-01T20:50:36.756Z,101352.03
2023-05-01T20:53:04.259Z,101337.31
2023-05-01T20:55:31.592Z,101328.59
2023-05-01T20:57:58.976Z,101334.56
2023-05-01T21:00:26.408Z,101348.38
2023-05-01T21:02:54.002Z,101347.75
2023-05-01T21:05:21.635Z,101345.91
2023-05-01T21:07:49.043Z,101338.28
2023-05-01T21:10:16.793Z,101344.81
2023-05-01T21:12:44.479Z,101343.97
2023-05-01T21:15:12.107Z,101342.34
2023-05-01T21:17:43.573Z,101354.97
2023-05-01T21:20:24.847Z,101352.94
2023-05-01T21:22:52.237Z,101348.28
2023-05-01T21:25:27.631Z,101354.84
2023-05-01T21:27:55.021Z,101350.22
2023-05-01T21:30:33.976Z,101347.38
2023-05-01T21:33:21.673Z,101352.97
2023-05-01T21:35:49.491Z,101350.31
2023-05-01T21:38:16.912Z,101350.78
2023-05-01T21:40:46.295Z,101354.41
2023-05-01T21:43:13.882Z,101349.28
2023-05-01T21:45:44.815Z,101350.78
2023-05-01T21:48:15.367Z,101353.16
2023-05-01T21:50:42.890Z,101359.81
2023-05-01T21:53:10.293Z,101354.69
2023-05-01T21:55:56.157Z,101352.03
2023-05-01T21:58:24.952Z,101354.69
2023-05-01T22:00:52.505Z,101359.97
2023-05-01T22:03:21.466Z,101361.53
2023-05-01T22:05:48.796Z,101359.69
2023-05-01T22:08:16.156Z,101364.81
2023-05-01T22:10:45.151Z,101361.19
2023-05-01T22:13:12.501Z,101363.66
2023-05-01T22:15:39.836Z,101369.59
2023-05-01T22:18:07.330Z,101369.44
2023-05-01T22:20:34.682Z,101378.38
2023-05-01T22:23:02.009Z,101377.38
2023-05-01T22:25:29.386Z,101382.88
2023-05-01T22:27:56.984Z,101380.41
2023-05-01T22:30:24.325Z,101378.84
2023-05-01T22:32:51.809Z,101385.00
2023-05-01T22:35:19.185Z,101385.44
2023-05-01T22:37:46.518Z,101381.50
2023-05-01T22:40:13.894Z,101391.56
2023-05-01T22:42:41.260Z,101398.91
2023-05-01T22:45:09.125Z,101399.81
2023-05-01T22:47:55.348Z,101391.22
2023-05-01T22:50:22.667Z,101408.13
2023-05-01T22:52:49.975Z,101412.44
2023-05-01T22:55:17.452Z,101415.75
2023-05-01T22:57:44.885Z,101416.72
2023-05-01T23:00:13.440Z,101428.00
2023-05-01T23:02:41.221Z,101425.72
2023-05-01T23:05:10.137Z,101429.66
2023-05-01T23:07:37.547Z,101428.00
2023-05-01T23:10:05.709Z,101427.16
2023-05-01T23:12:33.385Z,101419.88
2023-05-01T23:15:00.884Z,101424.34
2023-05-01T23:17:35.059Z,101416.66
2023-05-01T23:20:02.611Z,101419.69
2023-05-01T23:22:30.852Z,101417.69
2023-05-01T23:24:58.183Z,101417.31
2023-05-01T23:27:25.577Z,101406.72
2023-05-01T23:29:58.792Z,101414.66
2023-05-01T23:32:32.197Z,101421.59
2023-05-01T23:35:12.923Z,101421.44
2023-05-01T23:37:40.129Z,101425.91
2023-05-01T23:40:09.600Z,101417.03
2023-05-01T23:42:39.257Z,101422.34
2023-05-01T23:45:08.116Z,101421.69
2023-05-01T23:47:37.194Z,101432.97
2023-05-01T23:50:04.992Z,101436.63
2023-05-01T23:52:32.614Z,101439.09
2023-05-01T23:54:59.973Z,101437.97
2023-05-01T23:57:27.571Z,101431.66
2023-05-01T23:59:54.986Z,101440.72
